Airport View

Enter AWOS ICAO identifier for current METAR.

ex. KFNL

KBVS 261215Z AUTO 16003KT 10SM BKN085 OVC110 12/10 A2991 RMK A01

26 Jun 2019 12:21

Frequency: 121.125

Phone: 360-757-7767

Other Area AWOS: KNUW - KBLI - KAWO - KORS

TAF KNUW 2607/2707 25007KT 9999 FEW035 BKN050 BKN100 BKN250 620809 QNH2987INS TEMPO 2610/2616 VRB05KT 9000 SHRA BR BKN015 BKN045 OVC080 FM261900 26009KT 9999 VCSH SCT032 BKN050 BKN090 OVC130 650809 QNH2986INS FM270000 27012KT 9999 SCT020 BKN060 BKN180 600000 QNH2983INS T11/2613Z T21/2623Z FS30144